sensor_id;sensor_type;location;lat;lon;timestamp;temperature;humidity
13186;DHT22;6658;53.080;7.428;2023-12-04T00:00:04;0.80;99.90
13186;DHT22;6658;53.080;7.428;2023-12-04T00:02:36;0.80;99.90
13186;DHT22;6658;53.080;7.428;2023-12-04T00:05:05;0.70;99.90
13186;DHT22;6658;53.080;7.428;2023-12-04T00:07:31;0.70;99.90
13186;DHT22;6658;53.080;7.428;2023-12-04T00:09:57;0.70;99.90
13186;DHT22;6658;53.080;7.428;2023-12-04T00:12:28;0.70;99.90
13186;DHT22;6658;53.080;7.428;2023-12-04T00:14:54;0.70;99.90
13186;DHT22;6658;53.080;7.428;2023-12-04T00:17:19;0.60;99.90
13186;DHT22;6658;53.080;7.428;2023-12-04T00:19:45;0.60;99.90
13186;DHT22;6658;53.080;7.428;2023-12-04T00:22:22;0.60;99.90
13186;DHT22;6658;53.080;7.428;2023-12-04T00:24:51;0.60;99.90
13186;DHT22;6658;53.080;7.428;2023-12-04T00:27:19;0.60;99.90
13186;DHT22;6658;53.080;7.428;2023-12-04T00:29:46;0.60;99.90
13186;DHT22;6658;53.080;7.428;2023-12-04T00:32:12;0.60;99.90
13186;DHT22;6658;53.080;7.428;2023-12-04T00:34:38;0.60;99.90
13186;DHT22;6658;53.080;7.428;2023-12-04T00:37:06;0.60;99.90
13186;DHT22;6658;53.080;7.428;2023-12-04T00:39:33;0.60;99.90
13186;DHT22;6658;53.080;7.428;2023-12-04T00:41:58;0.60;99.90
13186;DHT22;6658;53.080;7.428;2023-12-04T00:44:24;0.60;99.90
13186;DHT22;6658;53.080;7.428;2023-12-04T00:46:50;0.60;99.90
13186;DHT22;6658;53.080;7.428;2023-12-04T00:49:18;0.60;99.90
13186;DHT22;6658;53.080;7.428;2023-12-04T00:51:44;0.60;99.90
13186;DHT22;6658;53.080;7.428;2023-12-04T00:54:11;0.60;99.90
13186;DHT22;6658;53.080;7.428;2023-12-04T00:56:48;0.60;99.90
13186;DHT22;6658;53.080;7.428;2023-12-04T00:59:14;0.60;99.90
13186;DHT22;6658;53.080;7.428;2023-12-04T01:01:43;0.60;99.90
13186;DHT22;6658;53.080;7.428;2023-12-04T01:04:09;0.60;99.90
13186;DHT22;6658;53.080;7.428;2023-12-04T01:06:35;0.60;99.90
13186;DHT22;6658;53.080;7.428;2023-12-04T01:09:01;0.60;99.90
13186;DHT22;6658;53.080;7.428;2023-12-04T01:14:08;0.60;99.90
13186;DHT22;6658;53.080;7.428;2023-12-04T01:16:37;0.60;99.90
13186;DHT22;6658;53.080;7.428;2023-12-04T01:19:09;0.60;99.90
13186;DHT22;6658;53.080;7.428;2023-12-04T01:21:38;0.60;99.90
13186;DHT22;6658;53.080;7.428;2023-12-04T01:24:04;0.60;99.90
13186;DHT22;6658;53.080;7.428;2023-12-04T01:26:33;0.50;99.90
13186;DHT22;6658;53.080;7.428;2023-12-04T01:29:03;0.50;99.90
13186;DHT22;6658;53.080;7.428;2023-12-04T01:31:28;0.50;99.90
13186;DHT22;6658;53.080;7.428;2023-12-04T01:34:03;0.50;99.90
13186;DHT22;6658;53.080;7.428;2023-12-04T01:36:32;0.50;99.90
13186;DHT22;6658;53.080;7.428;2023-12-04T01:39:04;0.50;99.90
13186;DHT22;6658;53.080;7.428;2023-12-04T01:41:29;0.50;99.90
13186;DHT22;6658;53.080;7.428;2023-12-04T01:43:55;0.50;99.90
13186;DHT22;6658;53.080;7.428;2023-12-04T01:46:21;0.50;99.90
13186;DHT22;6658;53.080;7.428;2023-12-04T01:48:47;0.50;99.90
13186;DHT22;6658;53.080;7.428;2023-12-04T01:51:13;0.50;99.90
13186;DHT22;6658;53.080;7.428;2023-12-04T01:53:46;0.50;99.90
13186;DHT22;6658;53.080;7.428;2023-12-04T01:56:15;0.50;99.90
13186;DHT22;6658;53.080;7.428;2023-12-04T01:58:45;0.50;99.90
13186;DHT22;6658;53.080;7.428;2023-12-04T02:01:12;0.50;99.90
13186;DHT22;6658;53.080;7.428;2023-12-04T02:03:48;0.50;99.90
13186;DHT22;6658;53.080;7.428;2023-12-04T02:06:13;0.50;99.90
13186;DHT22;6658;53.080;7.428;2023-12-04T02:08:41;0.50;99.90
13186;DHT22;6658;53.080;7.428;2023-12-04T02:11:07;0.50;99.90
13186;DHT22;6658;53.080;7.428;2023-12-04T02:13:33;0.50;99.90
13186;DHT22;6658;53.080;7.428;2023-12-04T02:16:03;0.50;99.90
13186;DHT22;6658;53.080;7.428;2023-12-04T02:18:36;0.50;99.90
13186;DHT22;6658;53.080;7.428;2023-12-04T02:21:03;0.50;99.90
13186;DHT22;6658;53.080;7.428;2023-12-04T02:23:31;0.50;99.90
13186;DHT22;6658;53.080;7.428;2023-12-04T02:26:01;0.50;99.90
13186;DHT22;6658;53.080;7.428;2023-12-04T02:28:33;0.50;99.90
13186;DHT22;6658;53.080;7.428;2023-12-04T02:30:59;0.50;99.90
13186;DHT22;6658;53.080;7.428;2023-12-04T02:33:27;0.50;99.90
13186;DHT22;6658;53.080;7.428;2023-12-04T02:35:55;0.50;99.90
13186;DHT22;6658;53.080;7.428;2023-12-04T02:38:25;0.50;99.90
13186;DHT22;6658;53.080;7.428;2023-12-04T02:40:55;0.50;99.90
13186;DHT22;6658;53.080;7.428;2023-12-04T02:43:21;0.50;99.90
13186;DHT22;6658;53.080;7.428;2023-12-04T02:45:46;0.50;99.90
13186;DHT22;6658;53.080;7.428;2023-12-04T02:48:12;0.50;99.90
13186;DHT22;6658;53.080;7.428;2023-12-04T02:50:43;0.50;99.90
13186;DHT22;6658;53.080;7.428;2023-12-04T02:53:09;0.50;99.90
13186;DHT22;6658;53.080;7.428;2023-12-04T02:55:34;0.50;99.90
13186;DHT22;6658;53.080;7.428;2023-12-04T02:58:09;0.50;99.90
13186;DHT22;6658;53.080;7.428;2023-12-04T03:00:37;0.50;99.90
13186;DHT22;6658;53.080;7.428;2023-12-04T03:03:06;0.50;99.90
13186;DHT22;6658;53.080;7.428;2023-12-04T03:05:41;0.50;99.90
13186;DHT22;6658;53.080;7.428;2023-12-04T03:08:07;0.50;99.90
13186;DHT22;6658;53.080;7.428;2023-12-04T03:14:07;0.50;99.90
13186;DHT22;6658;53.080;7.428;2023-12-04T03:16:36;0.50;99.90
13186;DHT22;6658;53.080;7.428;2023-12-04T03:19:07;0.50;99.90
13186;DHT22;6658;53.080;7.428;2023-12-04T03:21:33;0.50;99.90
13186;DHT22;6658;53.080;7.428;2023-12-04T03:23:59;0.50;99.90
13186;DHT22;6658;53.080;7.428;2023-12-04T03:26:25;0.50;99.90
13186;DHT22;6658;53.080;7.428;2023-12-04T03:28:51;0.50;99.90
13186;DHT22;6658;53.080;7.428;2023-12-04T03:31:22;0.60;99.90
13186;DHT22;6658;53.080;7.428;2023-12-04T03:33:51;0.60;99.90
13186;DHT22;6658;53.080;7.428;2023-12-04T03:36:17;0.60;99.90
13186;DHT22;6658;53.080;7.428;2023-12-04T03:38:42;0.60;99.90
13186;DHT22;6658;53.080;7.428;2023-12-04T03:41:25;0.60;99.90
13186;DHT22;6658;53.080;7.428;2023-12-04T03:43:51;0.60;99.90
13186;DHT22;6658;53.080;7.428;2023-12-04T03:46:19;0.60;99.90
13186;DHT22;6658;53.080;7.428;2023-12-04T03:49:05;0.60;99.90
13186;DHT22;6658;53.080;7.428;2023-12-04T03:51:31;0.60;99.90
13186;DHT22;6658;53.080;7.428;2023-12-04T03:53:57;0.60;99.90
13186;DHT22;6658;53.080;7.428;2023-12-04T03:56:31;0.60;99.90
13186;DHT22;6658;53.080;7.428;2023-12-04T03:59:03;0.70;99.90
13186;DHT22;6658;53.080;7.428;2023-12-04T04:01:28;0.70;99.90
13186;DHT22;6658;53.080;7.428;2023-12-04T04:03:54;0.70;99.90
13186;DHT22;6658;53.080;7.428;2023-12-04T04:06:20;0.70;99.90
13186;DHT22;6658;53.080;7.428;2023-12-04T04:08:46;0.60;99.90
13186;DHT22;6658;53.080;7.428;2023-12-04T04:11:11;0.70;99.90
13186;DHT22;6658;53.080;7.428;2023-12-04T04:13:39;0.70;99.90
13186;DHT22;6658;53.080;7.428;2023-12-04T04:16:06;0.70;99.90
13186;DHT22;6658;53.080;7.428;2023-12-04T04:18:31;0.70;99.90
13186;DHT22;6658;53.080;7.428;2023-12-04T04:20:57;0.70;99.90
13186;DHT22;6658;53.080;7.428;2023-12-04T04:23:23;0.70;99.90
13186;DHT22;6658;53.080;7.428;2023-12-04T04:25:52;0.70;99.90
13186;DHT22;6658;53.080;7.428;2023-12-04T04:28:17;0.70;99.90
13186;DHT22;6658;53.080;7.428;2023-12-04T04:30:43;0.70;99.90
13186;DHT22;6658;53.080;7.428;2023-12-04T04:33:12;0.70;99.90
13186;DHT22;6658;53.080;7.428;2023-12-04T04:35:38;0.70;99.90
13186;DHT22;6658;53.080;7.428;2023-12-04T04:38:04;0.70;99.90
13186;DHT22;6658;53.080;7.428;2023-12-04T04:40:30;0.70;99.90
13186;DHT22;6658;53.080;7.428;2023-12-04T04:42:55;0.70;99.90
13186;DHT22;6658;53.080;7.428;2023-12-04T04:45:21;0.70;99.90
13186;DHT22;6658;53.080;7.428;2023-12-04T04:47:47;0.70;99.90
13186;DHT22;6658;53.080;7.428;2023-12-04T04:50:12;0.70;99.90
13186;DHT22;6658;53.080;7.428;2023-12-04T04:52:38;0.70;99.90
13186;DHT22;6658;53.080;7.428;2023-12-04T04:55:05;0.80;99.90
13186;DHT22;6658;53.080;7.428;2023-12-04T04:57:31;0.80;99.90
13186;DHT22;6658;53.080;7.428;2023-12-04T04:59:56;0.80;99.90
13186;DHT22;6658;53.080;7.428;2023-12-04T05:02:22;0.80;99.90
13186;DHT22;6658;53.080;7.428;2023-12-04T05:04:48;0.80;99.90
13186;DHT22;6658;53.080;7.428;2023-12-04T05:07:13;0.80;99.90
13186;DHT22;6658;53.080;7.428;2023-12-04T05:09:39;0.80;99.90
13186;DHT22;6658;53.080;7.428;2023-12-04T05:12:08;0.80;99.90
13186;DHT22;6658;53.080;7.428;2023-12-04T05:14:36;0.80;99.90
13186;DHT22;6658;53.080;7.428;2023-12-04T05:17:02;0.80;99.90
13186;DHT22;6658;53.080;7.428;2023-12-04T05:19:27;0.80;99.90
13186;DHT22;6658;53.080;7.428;2023-12-04T05:21:53;0.80;99.90
13186;DHT22;6658;53.080;7.428;2023-12-04T05:24:22;0.80;99.90
13186;DHT22;6658;53.080;7.428;2023-12-04T05:26:48;0.80;99.90
13186;DHT22;6658;53.080;7.428;2023-12-04T05:29:14;0.80;99.90
13186;DHT22;6658;53.080;7.428;2023-12-04T05:31:40;0.80;99.90
13186;DHT22;6658;53.080;7.428;2023-12-04T05:34:08;0.80;99.90
13186;DHT22;6658;53.080;7.428;2023-12-04T05:36:34;0.90;99.90
13186;DHT22;6658;53.080;7.428;2023-12-04T05:38:59;0.90;99.90
13186;DHT22;6658;53.080;7.428;2023-12-04T05:41:30;0.90;99.90
13186;DHT22;6658;53.080;7.428;2023-12-04T05:43:58;0.90;99.90
13186;DHT22;6658;53.080;7.428;2023-12-04T05:46:26;0.90;99.90
13186;DHT22;6658;53.080;7.428;2023-12-04T05:48:54;0.90;99.90
13186;DHT22;6658;53.080;7.428;2023-12-04T05:51:20;0.90;99.90
13186;DHT22;6658;53.080;7.428;2023-12-04T05:53:46;0.90;99.90
13186;DHT22;6658;53.080;7.428;2023-12-04T05:56:14;0.90;99.90
13186;DHT22;6658;53.080;7.428;2023-12-04T05:58:43;1.00;99.90
13186;DHT22;6658;53.080;7.428;2023-12-04T06:01:11;0.90;99.90
13186;DHT22;6658;53.080;7.428;2023-12-04T06:03:43;1.00;99.90
13186;DHT22;6658;53.080;7.428;2023-12-04T06:06:11;0.90;99.90
13186;DHT22;6658;53.080;7.428;2023-12-04T06:08:48;1.00;99.90
13186;DHT22;6658;53.080;7.428;2023-12-04T06:11:14;1.00;99.90
13186;DHT22;6658;53.080;7.428;2023-12-04T06:13:40;1.00;99.90
13186;DHT22;6658;53.080;7.428;2023-12-04T06:16:09;0.90;99.90
13186;DHT22;6658;53.080;7.428;2023-12-04T06:18:35;1.00;99.90
13186;DHT22;6658;53.080;7.428;2023-12-04T06:21:01;1.00;99.90
13186;DHT22;6658;53.080;7.428;2023-12-04T06:23:27;1.00;99.90
13186;DHT22;6658;53.080;7.428;2023-12-04T06:25:53;1.00;99.90
13186;DHT22;6658;53.080;7.428;2023-12-04T06:28:21;1.00;99.90
13186;DHT22;6658;53.080;7.428;2023-12-04T06:30:50;1.00;99.90
13186;DHT22;6658;53.080;7.428;2023-12-04T06:33:16;1.00;99.90
13186;DHT22;6658;53.080;7.428;2023-12-04T06:35:46;1.10;99.90
13186;DHT22;6658;53.080;7.428;2023-12-04T06:38:17;1.10;99.90
13186;DHT22;6658;53.080;7.428;2023-12-04T06:40:57;1.10;99.90
13186;DHT22;6658;53.080;7.428;2023-12-04T06:43:31;1.10;99.90
13186;DHT22;6658;53.080;7.428;2023-12-04T06:46:15;1.10;99.90
13186;DHT22;6658;53.080;7.428;2023-12-04T06:48:47;1.10;99.90
13186;DHT22;6658;53.080;7.428;2023-12-04T06:51:16;1.10;99.90
13186;DHT22;6658;53.080;7.428;2023-12-04T06:53:44;1.10;99.90
13186;DHT22;6658;53.080;7.428;2023-12-04T06:56:09;1.10;99.90
13186;DHT22;6658;53.080;7.428;2023-12-04T06:58:38;1.10;99.90
13186;DHT22;6658;53.080;7.428;2023-12-04T07:01:04;1.10;99.90
13186;DHT22;6658;53.080;7.428;2023-12-04T07:03:30;1.10;99.90
13186;DHT22;6658;53.080;7.428;2023-12-04T07:05:55;1.10;99.90
13186;DHT22;6658;53.080;7.428;2023-12-04T07:08:21;1.10;99.90
13186;DHT22;6658;53.080;7.428;2023-12-04T07:10:47;1.10;99.90
13186;DHT22;6658;53.080;7.428;2023-12-04T07:13:13;1.20;99.90
13186;DHT22;6658;53.080;7.428;2023-12-04T07:15:47;1.10;99.90
13186;DHT22;6658;53.080;7.428;2023-12-04T07:18:17;1.20;99.90
13186;DHT22;6658;53.080;7.428;2023-12-04T07:20:45;1.10;99.90
13186;DHT22;6658;53.080;7.428;2023-12-04T07:23:10;1.10;99.90
13186;DHT22;6658;53.080;7.428;2023-12-04T07:25:39;1.10;99.90
13186;DHT22;6658;53.080;7.428;2023-12-04T07:28:04;1.10;99.90
13186;DHT22;6658;53.080;7.428;2023-12-04T07:30:30;1.10;99.90
13186;DHT22;6658;53.080;7.428;2023-12-04T07:33:02;1.10;99.90
13186;DHT22;6658;53.080;7.428;2023-12-04T07:35:28;1.10;99.90
13186;DHT22;6658;53.080;7.428;2023-12-04T07:37:53;1.10;99.90
13186;DHT22;6658;53.080;7.428;2023-12-04T07:40:19;1.10;99.90
13186;DHT22;6658;53.080;7.428;2023-12-04T07:42:48;1.10;99.90
13186;DHT22;6658;53.080;7.428;2023-12-04T07:45:14;1.10;99.90
13186;DHT22;6658;53.080;7.428;2023-12-04T07:47:55;1.10;99.90
13186;DHT22;6658;53.080;7.428;2023-12-04T07:50:24;1.10;99.90
13186;DHT22;6658;53.080;7.428;2023-12-04T07:52:50;1.10;99.90
13186;DHT22;6658;53.080;7.428;2023-12-04T07:55:16;1.10;99.90
13186;DHT22;6658;53.080;7.428;2023-12-04T07:57:43;1.10;99.90
13186;DHT22;6658;53.080;7.428;2023-12-04T08:00:17;1.10;99.90
13186;DHT22;6658;53.080;7.428;2023-12-04T08:02:48;1.20;99.90
13186;DHT22;6658;53.080;7.428;2023-12-04T08:05:14;1.20;99.90
13186;DHT22;6658;53.080;7.428;2023-12-04T08:07:40;1.20;99.90
13186;DHT22;6658;53.080;7.428;2023-12-04T08:10:06;1.20;99.90
13186;DHT22;6658;53.080;7.428;2023-12-04T08:12:46;1.20;99.90
13186;DHT22;6658;53.080;7.428;2023-12-04T08:15:20;1.20;99.90
13186;DHT22;6658;53.080;7.428;2023-12-04T08:17:45;1.20;99.90
13186;DHT22;6658;53.080;7.428;2023-12-04T08:20:11;1.30;99.90
13186;DHT22;6658;53.080;7.428;2023-12-04T08:22:40;1.30;99.90
13186;DHT22;6658;53.080;7.428;2023-12-04T08:25:07;1.30;99.90
13186;DHT22;6658;53.080;7.428;2023-12-04T08:27:33;1.30;99.90
13186;DHT22;6658;53.080;7.428;2023-12-04T08:29:59;1.30;99.90
13186;DHT22;6658;53.080;7.428;2023-12-04T08:32:28;1.30;99.90
13186;DHT22;6658;53.080;7.428;2023-12-04T08:34:54;1.30;99.90
13186;DHT22;6658;53.080;7.428;2023-12-04T08:37:23;1.30;99.90
13186;DHT22;6658;53.080;7.428;2023-12-04T08:39:52;1.40;99.90
13186;DHT22;6658;53.080;7.428;2023-12-04T08:42:29;1.30;99.90
13186;DHT22;6658;53.080;7.428;2023-12-04T08:44:55;1.40;99.90
13186;DHT22;6658;53.080;7.428;2023-12-04T08:47:35;1.40;99.90
13186;DHT22;6658;53.080;7.428;2023-12-04T08:50:01;1.40;99.90
13186;DHT22;6658;53.080;7.428;2023-12-04T08:52:47;1.50;99.90
13186;DHT22;6658;53.080;7.428;2023-12-04T08:55:14;1.40;99.90
13186;DHT22;6658;53.080;7.428;2023-12-04T08:57:45;1.50;99.90
13186;DHT22;6658;53.080;7.428;2023-12-04T09:00:14;1.50;99.90
13186;DHT22;6658;53.080;7.428;2023-12-04T09:02:47;1.50;99.90
13186;DHT22;6658;53.080;7.428;2023-12-04T09:05:14;1.50;99.90
13186;DHT22;6658;53.080;7.428;2023-12-04T09:07:40;1.60;99.90
13186;DHT22;6658;53.080;7.428;2023-12-04T09:10:09;1.60;99.90
13186;DHT22;6658;53.080;7.428;2023-12-04T09:12:35;1.60;99.90
13186;DHT22;6658;53.080;7.428;2023-12-04T09:15:04;1.60;99.90
13186;DHT22;6658;53.080;7.428;2023-12-04T09:17:35;1.60;99.90
13186;DHT22;6658;53.080;7.428;2023-12-04T09:20:06;1.60;99.90
13186;DHT22;6658;53.080;7.428;2023-12-04T09:32:54;1.70;99.90
13186;DHT22;6658;53.080;7.428;2023-12-04T09:35:20;1.70;99.90
13186;DHT22;6658;53.080;7.428;2023-12-04T09:37:45;1.80;99.90
13186;DHT22;6658;53.080;7.428;2023-12-04T09:40:12;1.80;99.90
13186;DHT22;6658;53.080;7.428;2023-12-04T09:42:41;1.70;99.90
13186;DHT22;6658;53.080;7.428;2023-12-04T09:45:13;1.80;99.90
13186;DHT22;6658;53.080;7.428;2023-12-04T09:47:48;1.80;99.90
13186;DHT22;6658;53.080;7.428;2023-12-04T09:50:16;1.90;99.90
13186;DHT22;6658;53.080;7.428;2023-12-04T09:52:49;1.90;99.90
13186;DHT22;6658;53.080;7.428;2023-12-04T09:55:19;1.90;99.90
13186;DHT22;6658;53.080;7.428;2023-12-04T09:57:46;1.90;99.90
13186;DHT22;6658;53.080;7.428;2023-12-04T10:00:15;2.00;99.90
13186;DHT22;6658;53.080;7.428;2023-12-04T10:02:44;2.00;99.90
13186;DHT22;6658;53.080;7.428;2023-12-04T10:05:11;2.00;99.90
13186;DHT22;6658;53.080;7.428;2023-12-04T10:07:37;2.00;99.90
13186;DHT22;6658;53.080;7.428;2023-12-04T10:10:04;2.10;99.90
13186;DHT22;6658;53.080;7.428;2023-12-04T10:12:42;2.00;99.90
13186;DHT22;6658;53.080;7.428;2023-12-04T10:15:12;2.10;99.90
13186;DHT22;6658;53.080;7.428;2023-12-04T10:17:40;2.10;99.90
13186;DHT22;6658;53.080;7.428;2023-12-04T10:20:14;2.10;99.90
13186;DHT22;6658;53.080;7.428;2023-12-04T10:22:57;2.10;99.90
13186;DHT22;6658;53.080;7.428;2023-12-04T10:25:37;2.10;99.90
13186;DHT22;6658;53.080;7.428;2023-12-04T10:28:19;2.10;99.90
13186;DHT22;6658;53.080;7.428;2023-12-04T10:30:45;2.10;99.90
13186;DHT22;6658;53.080;7.428;2023-12-04T10:33:12;2.10;99.90
13186;DHT22;6658;53.080;7.428;2023-12-04T10:35:39;2.10;99.90
13186;DHT22;6658;53.080;7.428;2023-12-04T10:38:21;2.20;99.90
13186;DHT22;6658;53.080;7.428;2023-12-04T10:40:49;2.20;99.90
13186;DHT22;6658;53.080;7.428;2023-12-04T10:43:15;2.30;99.90
13186;DHT22;6658;53.080;7.428;2023-12-04T10:45:42;2.20;99.90
13186;DHT22;6658;53.080;7.428;2023-12-04T10:48:10;2.30;99.90
13186;DHT22;6658;53.080;7.428;2023-12-04T10:50:37;2.30;99.90
13186;DHT22;6658;53.080;7.428;2023-12-04T10:53:15;2.30;99.90
13186;DHT22;6658;53.080;7.428;2023-12-04T10:55:58;2.30;99.90
13186;DHT22;6658;53.080;7.428;2023-12-04T10:58:26;2.30;99.90
13186;DHT22;6658;53.080;7.428;2023-12-04T11:00:56;2.40;99.90
13186;DHT22;6658;53.080;7.428;2023-12-04T11:06:18;2.40;99.90
13186;DHT22;6658;53.080;7.428;2023-12-04T11:08:49;2.50;99.90
13186;DHT22;6658;53.080;7.428;2023-12-04T11:11:36;2.50;99.90
13186;DHT22;6658;53.080;7.428;2023-12-04T11:14:17;2.50;99.90
13186;DHT22;6658;53.080;7.428;2023-12-04T11:16:56;2.60;99.90
13186;DHT22;6658;53.080;7.428;2023-12-04T11:22:34;2.60;99.90
13186;DHT22;6658;53.080;7.428;2023-12-04T11:25:09;2.60;99.90
13186;DHT22;6658;53.080;7.428;2023-12-04T11:27:42;2.50;99.90
13186;DHT22;6658;53.080;7.428;2023-12-04T11:30:12;2.60;99.90
13186;DHT22;6658;53.080;7.428;2023-12-04T11:32:49;2.60;99.90
13186;DHT22;6658;53.080;7.428;2023-12-04T11:35:21;2.60;99.90
13186;DHT22;6658;53.080;7.428;2023-12-04T11:37:50;2.60;99.90
13186;DHT22;6658;53.080;7.428;2023-12-04T11:40:20;2.50;99.90
13186;DHT22;6658;53.080;7.428;2023-12-04T11:42:50;2.60;99.90
13186;DHT22;6658;53.080;7.428;2023-12-04T11:45:21;2.60;99.90
13186;DHT22;6658;53.080;7.428;2023-12-04T11:47:54;2.60;99.90
13186;DHT22;6658;53.080;7.428;2023-12-04T11:50:21;2.50;99.90
13186;DHT22;6658;53.080;7.428;2023-12-04T11:52:50;2.50;99.90
13186;DHT22;6658;53.080;7.428;2023-12-04T11:55:26;2.60;99.90
13186;DHT22;6658;53.080;7.428;2023-12-04T11:57:54;2.50;99.90
13186;DHT22;6658;53.080;7.428;2023-12-04T12:00:29;2.50;99.90
13186;DHT22;6658;53.080;7.428;2023-12-04T12:05:24;2.50;99.90
13186;DHT22;6658;53.080;7.428;2023-12-04T12:07:51;2.50;99.90
13186;DHT22;6658;53.080;7.428;2023-12-04T12:13:12;2.50;99.90
13186;DHT22;6658;53.080;7.428;2023-12-04T12:15:47;2.50;99.90
13186;DHT22;6658;53.080;7.428;2023-12-04T12:18:24;2.50;99.90
13186;DHT22;6658;53.080;7.428;2023-12-04T12:20:54;2.60;99.90
13186;DHT22;6658;53.080;7.428;2023-12-04T12:23:20;2.60;99.90
13186;DHT22;6658;53.080;7.428;2023-12-04T12:25:46;2.60;99.90
13186;DHT22;6658;53.080;7.428;2023-12-04T12:28:19;2.60;99.90
13186;DHT22;6658;53.080;7.428;2023-12-04T12:30:47;2.60;99.90
13186;DHT22;6658;53.080;7.428;2023-12-04T12:33:19;2.60;99.90
13186;DHT22;6658;53.080;7.428;2023-12-04T12:35:54;2.70;99.90
13186;DHT22;6658;53.080;7.428;2023-12-04T12:38:32;2.70;99.90
13186;DHT22;6658;53.080;7.428;2023-12-04T12:41:07;2.70;99.90
13186;DHT22;6658;53.080;7.428;2023-12-04T12:43:38;2.70;99.90
13186;DHT22;6658;53.080;7.428;2023-12-04T12:46:12;2.60;99.90
13186;DHT22;6658;53.080;7.428;2023-12-04T12:48:54;2.60;99.90
13186;DHT22;6658;53.080;7.428;2023-12-04T12:51:20;2.70;99.90
13186;DHT22;6658;53.080;7.428;2023-12-04T12:54:38;2.70;99.90
13186;DHT22;6658;53.080;7.428;2023-12-04T12:57:08;2.70;99.90
13186;DHT22;6658;53.080;7.428;2023-12-04T12:59:46;2.70;99.90
13186;DHT22;6658;53.080;7.428;2023-12-04T13:02:24;2.70;99.90
13186;DHT22;6658;53.080;7.428;2023-12-04T13:04:56;2.60;99.90
13186;DHT22;6658;53.080;7.428;2023-12-04T13:07:21;2.60;99.90
13186;DHT22;6658;53.080;7.428;2023-12-04T13:09:49;2.70;99.90
13186;DHT22;6658;53.080;7.428;2023-12-04T13:12:15;2.70;99.90
13186;DHT22;6658;53.080;7.428;2023-12-04T13:14:41;2.60;99.90
13186;DHT22;6658;53.080;7.428;2023-12-04T13:17:09;2.60;99.90
13186;DHT22;6658;53.080;7.428;2023-12-04T13:19:35;2.60;99.90
13186;DHT22;6658;53.080;7.428;2023-12-04T13:22:01;2.60;99.90
13186;DHT22;6658;53.080;7.428;2023-12-04T13:24:29;2.60;99.90
13186;DHT22;6658;53.080;7.428;2023-12-04T13:26:55;2.60;99.90
13186;DHT22;6658;53.080;7.428;2023-12-04T13:29:21;2.60;99.90
13186;DHT22;6658;53.080;7.428;2023-12-04T13:31:47;2.60;99.90
13186;DHT22;6658;53.080;7.428;2023-12-04T13:34:15;2.60;99.90
13186;DHT22;6658;53.080;7.428;2023-12-04T13:36:42;2.60;99.90
13186;DHT22;6658;53.080;7.428;2023-12-04T13:39:07;2.60;99.90
13186;DHT22;6658;53.080;7.428;2023-12-04T13:41:43;2.60;99.90
13186;DHT22;6658;53.080;7.428;2023-12-04T13:44:28;2.60;99.90
13186;DHT22;6658;53.080;7.428;2023-12-04T13:46:55;2.60;99.90
13186;DHT22;6658;53.080;7.428;2023-12-04T13:49:23;2.60;99.90
13186;DHT22;6658;53.080;7.428;2023-12-04T13:51:51;2.60;99.90
13186;DHT22;6658;53.080;7.428;2023-12-04T13:54:18;2.60;99.90
13186;DHT22;6658;53.080;7.428;2023-12-04T13:56:53;2.60;99.90
13186;DHT22;6658;53.080;7.428;2023-12-04T13:59:23;2.50;99.90
13186;DHT22;6658;53.080;7.428;2023-12-04T14:01:51;2.50;99.90
13186;DHT22;6658;53.080;7.428;2023-12-04T14:04:20;2.50;99.90
13186;DHT22;6658;53.080;7.428;2023-12-04T14:06:51;2.40;99.90
13186;DHT22;6658;53.080;7.428;2023-12-04T14:09:23;2.40;99.90
13186;DHT22;6658;53.080;7.428;2023-12-04T14:11:52;2.40;99.90
13186;DHT22;6658;53.080;7.428;2023-12-04T14:14:25;2.40;99.90
13186;DHT22;6658;53.080;7.428;2023-12-04T14:16:51;2.40;99.90
13186;DHT22;6658;53.080;7.428;2023-12-04T14:19:17;2.40;99.90
13186;DHT22;6658;53.080;7.428;2023-12-04T14:21:47;2.30;99.90
13186;DHT22;6658;53.080;7.428;2023-12-04T14:24:16;2.30;99.90
13186;DHT22;6658;53.080;7.428;2023-12-04T14:26:46;2.30;99.90
13186;DHT22;6658;53.080;7.428;2023-12-04T14:29:12;2.40;99.90
13186;DHT22;6658;53.080;7.428;2023-12-04T14:31:39;2.40;99.90
13186;DHT22;6658;53.080;7.428;2023-12-04T14:34:05;2.30;99.90
13186;DHT22;6658;53.080;7.428;2023-12-04T14:36:31;2.40;99.90
13186;DHT22;6658;53.080;7.428;2023-12-04T14:39:06;2.30;99.90
13186;DHT22;6658;53.080;7.428;2023-12-04T14:41:32;2.30;99.90
13186;DHT22;6658;53.080;7.428;2023-12-04T14:43:57;2.30;99.90
13186;DHT22;6658;53.080;7.428;2023-12-04T14:46:23;2.30;99.90
13186;DHT22;6658;53.080;7.428;2023-12-04T14:48:52;2.30;99.90
13186;DHT22;6658;53.080;7.428;2023-12-04T14:51:29;2.30;99.90
13186;DHT22;6658;53.080;7.428;2023-12-04T14:53:58;2.20;99.90
13186;DHT22;6658;53.080;7.428;2023-12-04T14:56:40;2.20;99.90
13186;DHT22;6658;53.080;7.428;2023-12-04T14:59:24;2.20;99.90
13186;DHT22;6658;53.080;7.428;2023-12-04T15:02:25;2.10;99.90
13186;DHT22;6658;53.080;7.428;2023-12-04T15:05:28;2.10;99.90
13186;DHT22;6658;53.080;7.428;2023-12-04T15:08:00;2.20;99.90
13186;DHT22;6658;53.080;7.428;2023-12-04T15:10:32;2.20;99.90
13186;DHT22;6658;53.080;7.428;2023-12-04T15:13:47;2.10;99.90
13186;DHT22;6658;53.080;7.428;2023-12-04T15:16:16;2.10;99.90
13186;DHT22;6658;53.080;7.428;2023-12-04T15:18:53;2.10;99.90
13186;DHT22;6658;53.080;7.428;2023-12-04T15:21:53;2.10;99.90
13186;DHT22;6658;53.080;7.428;2023-12-04T15:24:25;2.10;99.90
13186;DHT22;6658;53.080;7.428;2023-12-04T15:27:03;2.00;99.90
13186;DHT22;6658;53.080;7.428;2023-12-04T15:29:36;2.00;99.90
13186;DHT22;6658;53.080;7.428;2023-12-04T15:32:07;2.00;99.90
13186;DHT22;6658;53.080;7.428;2023-12-04T15:34:48;2.00;99.90
13186;DHT22;6658;53.080;7.428;2023-12-04T15:37:18;2.00;99.90
13186;DHT22;6658;53.080;7.428;2023-12-04T15:39:44;2.00;99.90
13186;DHT22;6658;53.080;7.428;2023-12-04T15:42:10;2.00;99.90
13186;DHT22;6658;53.080;7.428;2023-12-04T15:44:41;2.00;99.90
13186;DHT22;6658;53.080;7.428;2023-12-04T15:47:09;1.90;99.90
13186;DHT22;6658;53.080;7.428;2023-12-04T15:49:38;2.00;99.90
13186;DHT22;6658;53.080;7.428;2023-12-04T15:52:15;2.00;99.90
13186;DHT22;6658;53.080;7.428;2023-12-04T15:54:50;2.00;99.90
13186;DHT22;6658;53.080;7.428;2023-12-04T15:57:22;2.00;99.90
13186;DHT22;6658;53.080;7.428;2023-12-04T15:59:47;2.00;99.90
13186;DHT22;6658;53.080;7.428;2023-12-04T16:02:13;2.00;99.90
13186;DHT22;6658;53.080;7.428;2023-12-04T16:04:57;2.00;99.90
13186;DHT22;6658;53.080;7.428;2023-12-04T16:07:23;2.00;99.90
13186;DHT22;6658;53.080;7.428;2023-12-04T16:09:49;2.00;99.90
13186;DHT22;6658;53.080;7.428;2023-12-04T16:12:21;2.00;99.90
13186;DHT22;6658;53.080;7.428;2023-12-04T16:14:52;2.00;99.90
13186;DHT22;6658;53.080;7.428;2023-12-04T16:17:18;2.10;99.90
13186;DHT22;6658;53.080;7.428;2023-12-04T16:19:44;2.10;99.90
13186;DHT22;6658;53.080;7.428;2023-12-04T16:22:10;2.00;99.90
13186;DHT22;6658;53.080;7.428;2023-12-04T16:24:36;2.00;99.90
13186;DHT22;6658;53.080;7.428;2023-12-04T16:27:25;2.00;99.90
13186;DHT22;6658;53.080;7.428;2023-12-04T16:30:00;1.90;99.90
13186;DHT22;6658;53.080;7.428;2023-12-04T16:32:42;1.90;99.90
13186;DHT22;6658;53.080;7.428;2023-12-04T16:35:13;1.90;99.90
13186;DHT22;6658;53.080;7.428;2023-12-04T16:37:39;1.90;99.90
13186;DHT22;6658;53.080;7.428;2023-12-04T16:40:07;2.00;99.90
13186;DHT22;6658;53.080;7.428;2023-12-04T16:42:39;2.00;99.90
13186;DHT22;6658;53.080;7.428;2023-12-04T16:45:18;2.00;99.90